Terminal Aerodrome Forecast
Issued by NWS Jackson, MS

Home | Current Version | Previous Version | Text Only | Print | Product List | Glossary On
Versions: 1 2 3 4 5 6 7 8 9 10 11 12 13 14 15 16
000
FTUS44 KJAN 232334
TAFHBG
TAF
KHBG 232334Z 2400/2424 07003KT P6SM -SHRA SCT060 BKN120
     FM240100 05003KT P6SM FEW060
     FM240800 00000KT 5SM BR FEW250
     FM241100 00000KT 2SM BR FEW250
     FM241330 09006KT P6SM FEW030 SCT060=

USA.gov is the U.S. government's official web portal to all federal, state and local government web resources and services.